Sylvia, Kansas
Current Conditions -  °F | °C
As of 12:15 PM on Wednesday 28 Jan 2015 (Local Time) from KPTT Reporting Station
Clear Clear  
Wind Chill: 63°   Ceiling: Unl
Heat Index: 63°   Visibility: 10mi
Dew Point: 32°   Wind: 12mph
Humidity: 32%   Direction: 330°NNW
Pressure: 29.88"   Gusts: 18mph
Location:  37.96°N, 98.41°W
Report Text: KPTT 281815Z AUTO 33010G16KT 10SM CLR 17/00 A2988 RMK AO2
Loading
Personal Weather Stations






























Interactive Weather Map New forecast layout! Learn more

10-Day Weather Forecast

Advertisements
Track Severe Weather on mobile